Time;durP1;ratioP1;P1;durP2;ratioP2;P2;SDS_P1;SDS_P2;PMS_P1;PMS_P2;Temp;Humidity;BMP_temperature;BMP_pressure;BME280_temperature;BME280_humidity;BME280_pressure;Samples;Min_cycle;Max_cycle;Signal;HPM_P1;HPM_P2
2022/04/05 00:00:42;;;;;;;0.82;0.35;;;;;;;23.44;56.83;97852.19;5075118;28;20082;-68
2022/04/05 00:03:08;;;;;;;1.38;0.10;;;;;;;23.46;57.34;97843.66;5074170;28;20035;-67
2022/04/05 00:05:33;;;;;;;0.30;0.05;;;;;;;23.48;56.70;97850.53;5074277;28;20551;-68
2022/04/05 00:07:58;;;;;;;0.65;0.30;;;;;;;23.48;55.81;97847.78;5073133;28;20044;-68
2022/04/05 00:10:24;;;;;;;0.85;0.10;;;;;;;23.54;56.52;97851.34;5074192;28;20358;-67
2022/04/05 00:12:49;;;;;;;0.65;0.28;;;;;;;23.53;55.34;97866.97;5074392;28;20020;-67
2022/04/05 00:15:15;;;;;;;0.70;0.20;;;;;;;23.54;56.22;97854.91;5074078;28;20209;-67
2022/04/05 00:17:41;;;;;;;0.17;0.00;;;;;;;23.56;54.89;97871.09;5074188;28;20032;-67
2022/04/05 00:20:07;;;;;;;0.73;0.03;;;;;;;23.59;55.33;97874.13;5074844;28;20033;-67
2022/04/05 00:22:33;;;;;;;0.05;0.00;;;;;;;23.60;55.08;97874.94;5074025;28;20254;-67
2022/04/05 00:24:59;;;;;;;0.60;0.30;;;;;;;23.61;54.87;97885.63;5073981;28;20062;-68
2022/04/05 00:27:24;;;;;;;1.35;0.20;;;;;;;23.64;54.34;97887.81;5073803;28;20099;-67
2022/04/05 00:29:49;;;;;;;0.32;0.15;;;;;;;23.64;55.13;97885.06;5073999;28;20048;-67
2022/04/05 00:32:15;;;;;;;0.10;0.10;;;;;;;23.66;54.96;97904.81;5073861;28;20077;-67
2022/04/05 00:34:40;;;;;;;0.38;0.30;;;;;;;23.68;54.98;97899.03;5073855;28;20024;-67
2022/04/05 00:37:06;;;;;;;0.95;0.10;;;;;;;23.67;53.82;97906.44;5073675;28;20142;-68
2022/04/05 00:39:31;;;;;;;0.80;0.28;;;;;;;23.69;54.57;97901.53;5072324;28;20422;-67
2022/04/05 00:41:56;;;;;;;1.20;0.10;;;;;;;23.70;54.35;97911.41;5073862;28;20421;-67
2022/04/05 00:44:23;;;;;;;1.17;0.20;;;;;;;23.73;54.40;97920.19;5072366;28;20024;-67
2022/04/05 00:46:50;;;;;;;0.60;0.17;;;;;;;23.73;53.64;97911.94;5072416;28;20024;-67
2022/04/05 00:49:22;;;;;;;0.52;0.10;;;;;;;23.72;53.77;97918.53;5073352;28;20154;-67
2022/04/05 00:51:47;;;;;;;2.28;0.10;;;;;;;23.75;53.75;97924.28;5072244;28;20702;-68
2022/04/05 00:54:13;;;;;;;1.70;0.20;;;;;;;23.76;53.70;97922.34;5073481;28;20158;-67
2022/04/05 00:56:40;;;;;;;0.65;0.10;;;;;;;23.77;53.91;97926.75;5073668;28;20036;-67
2022/04/05 00:59:07;;;;;;;2.35;0.30;;;;;;;23.78;53.95;97922.91;5073263;28;20452;-67
2022/04/05 01:01:33;;;;;;;0.52;0.20;;;;;;;23.79;52.50;97930.03;5073497;28;20476;-67
2022/04/05 01:03:58;;;;;;;0.45;0.10;;;;;;;23.80;53.58;97920.69;5071823;28;20052;-67
2022/04/05 01:06:25;;;;;;;1.35;0.22;;;;;;;23.78;53.61;97920.97;5072145;28;20374;-67
2022/04/05 01:08:51;;;;;;;0.52;0.13;;;;;;;23.81;53.24;97934.13;5073177;28;20035;-67
2022/04/05 01:11:16;;;;;;;0.57;0.20;;;;;;;23.81;53.71;97938.81;5072908;28;20024;-67
2022/04/05 01:13:43;;;;;;;0.95;0.10;;;;;;;23.81;54.45;97933.31;5073162;28;20024;-67
2022/04/05 01:16:09;;;;;;;0.20;0.13;;;;;;;23.80;53.25;97943.47;5073058;28;20100;-67
2022/04/05 01:18:35;;;;;;;0.88;0.20;;;;;;;23.86;53.20;97949.78;5073239;28;20027;-67
2022/04/05 01:21:00;;;;;;;0.80;0.30;;;;;;;23.83;53.91;97953.06;5072907;28;20028;-67
2022/04/05 01:23:25;;;;;;;1.15;0.63;;;;;;;23.88;53.68;97966.78;5071529;28;20111;-66
2022/04/05 01:25:52;;;;;;;1.02;0.20;;;;;;;23.86;53.43;97955.28;5072907;28;20372;-66
2022/04/05 01:28:18;;;;;;;1.05;0.20;;;;;;;23.87;52.81;97965.97;5072754;28;20051;-67
2022/04/05 01:30:44;;;;;;;0.82;0.17;;;;;;;23.86;53.80;97963.50;5073108;28;20070;-67
2022/04/05 01:33:10;;;;;;;0.32;0.10;;;;;;;23.88;52.95;97964.03;5072692;28;20028;-67
2022/04/05 01:35:35;;;;;;;0.40;0.20;;;;;;;23.87;52.80;97956.91;5072790;28;20023;-67
2022/04/05 01:38:04;;;;;;;0.20;0.10;;;;;;;23.88;53.52;97966.78;5072789;28;20027;-67
2022/04/05 01:40:29;;;;;;;1.55;0.10;;;;;;;23.88;52.65;97953.06;5071146;28;20060;-67
2022/04/05 01:42:55;;;;;;;0.95;0.20;;;;;;;23.86;53.31;97969.00;5071353;28;20119;-67
2022/04/05 01:45:21;;;;;;;1.33;0.20;;;;;;;23.90;53.25;97964.59;5072303;28;20059;-67
2022/04/05 01:47:46;;;;;;;0.10;0.10;;;;;;;23.90;52.79;97959.91;5072493;28;20115;-66
2022/04/05 01:50:11;;;;;;;0.30;0.10;;;;;;;23.93;52.78;97980.50;5072525;28;20055;-66
2022/04/05 01:52:37;;;;;;;0.65;0.20;;;;;;;23.90;53.09;97970.91;5071053;28;20549;-67
2022/04/05 01:55:03;;;;;;;0.08;0.08;;;;;;;23.91;52.89;97977.19;5072435;28;20403;-66
2022/04/05 01:57:29;;;;;;;2.58;0.20;;;;;;;23.91;52.84;97991.75;5072243;28;20460;-66
2022/04/05 01:59:54;;;;;;;0.57;0.22;;;;;;;23.91;52.34;97977.19;5072504;28;20021;-66
2022/04/05 02:02:19;;;;;;;0.10;0.10;;;;;;;23.92;52.80;97989.81;5072184;28;20025;-67
2022/04/05 02:04:44;;;;;;;1.10;0.50;;;;;;;23.93;53.02;97997.78;5072195;28;20043;-66
2022/04/05 02:07:17;;;;;;;0.82;0.20;;;;;;;23.92;52.74;97996.13;5072186;28;20046;-66
2022/04/05 02:09:44;;;;;;;1.58;0.13;;;;;;;23.93;53.29;97995.03;5071038;28;20032;-68
2022/04/05 02:12:11;;;;;;;1.67;0.10;;;;;;;23.92;51.74;98006.28;5072336;28;20044;-67
2022/04/05 02:14:37;;;;;;;1.05;0.20;;;;;;;23.92;52.92;98012.59;5072208;28;20024;-67
2022/04/05 02:17:04;;;;;;;0.75;0.10;;;;;;;23.95;52.58;98011.22;5072184;28;20032;-67
2022/04/05 02:19:29;;;;;;;0.70;0.10;;;;;;;23.91;52.67;97993.66;5071992;28;20052;-67
2022/04/05 02:21:55;;;;;;;0.20;0.10;;;;;;;23.96;52.74;98023.81;5072279;28;20067;-66
2022/04/05 02:24:21;;;;;;;0.30;0.10;;;;;;;23.97;51.51;98014.50;5070676;28;20024;-67
2022/04/05 02:26:47;;;;;;;0.32;0.20;;;;;;;23.96;52.25;98012.84;5070910;28;20024;-66
2022/04/05 02:29:13;;;;;;;1.20;0.20;;;;;;;23.97;52.59;98025.47;5071943;28;20048;-67
2022/04/05 02:31:38;;;;;;;0.82;0.10;;;;;;;23.97;52.17;98030.97;5072115;28;20107;-67
2022/04/05 02:34:04;;;;;;;0.70;0.10;;;;;;;23.95;52.75;98039.47;5072180;28;20028;-67
2022/04/05 02:36:29;;;;;;;0.40;0.10;;;;;;;23.97;52.80;98036.44;5071897;28;20430;-67
2022/04/05 02:38:54;;;;;;;1.45;0.20;;;;;;;23.99;52.17;98050.69;5072016;28;20067;-67
2022/04/05 02:41:20;;;;;;;0.52;0.10;;;;;;;23.98;52.75;98044.41;5071852;28;20460;-67
2022/04/05 02:43:45;;;;;;;0.25;0.05;;;;;;;23.96;51.60;98041.09;5072044;28;20112;-67
2022/04/05 02:46:11;;;;;;;0.70;0.20;;;;;;;23.94;52.35;98048.78;5071899;28;20025;-67
2022/04/05 02:48:42;;;;;;;0.32;0.10;;;;;;;23.96;53.14;98051.25;5071884;28;20020;-67
2022/04/05 02:51:09;;;;;;;0.10;0.10;;;;;;;23.96;52.59;98051.25;5071092;28;20390;-67
2022/04/05 02:53:35;;;;;;;0.50;0.00;;;;;;;23.96;52.67;98056.75;5070476;28;20036;-67
2022/04/05 02:56:00;;;;;;;0.65;0.20;;;;;;;23.96;52.85;98059.50;5071952;28;20017;-67
2022/04/05 02:58:25;;;;;;;0.68;0.20;;;;;;;23.96;52.63;98059.50;5070407;28;20036;-67
2022/04/05 03:00:50;;;;;;;0.25;0.10;;;;;;;23.99;52.16;98072.66;5070539;28;20392;-67
2022/04/05 03:03:16;;;;;;;1.00;0.28;;;;;;;23.98;52.16;98087.47;5071867;28;20025;-67
2022/04/05 03:05:41;;;;;;;0.60;0.10;;;;;;;23.97;52.69;98080.34;5071765;28;20478;-67
2022/04/05 03:08:06;;;;;;;0.08;0.08;;;;;;;23.98;52.07;98077.31;5070755;28;20028;-67
2022/04/05 03:10:32;;;;;;;0.30;0.10;;;;;;;23.97;52.34;98067.44;5071676;28;20029;-67
2022/04/05 03:12:58;;;;;;;0.50;0.20;;;;;;;23.93;52.15;98065.53;5070385;28;20021;-67
2022/04/05 03:15:24;;;;;;;0.28;0.20;;;;;;;23.94;51.67;98075.41;5071567;28;20456;-67
2022/04/05 03:17:50;;;;;;;0.50;0.40;;;;;;;23.96;51.77;98084.19;5071752;28;20403;-67
2022/04/05 03:20:15;;;;;;;0.40;0.17;;;;;;;23.96;52.10;98090.50;5071570;28;20032;-67
2022/04/05 03:22:42;;;;;;;0.85;0.20;;;;;;;23.97;52.25;98096.81;5071668;28;20025;-67
2022/04/05 03:25:08;;;;;;;0.60;0.20;;;;;;;23.98;51.51;98098.44;5071382;28;20021;-67
2022/04/05 03:27:38;;;;;;;0.28;0.20;;;;;;;24.00;51.37;98096.25;5071504;28;20032;-67
2022/04/05 03:30:03;;;;;;;1.10;0.20;;;;;;;23.99;52.03;98100.09;5072527;28;20067;-66
2022/04/05 03:32:29;;;;;;;0.10;0.10;;;;;;;23.97;51.83;98077.59;5073673;28;20056;-67
2022/04/05 03:34:54;;;;;;;0.47;0.10;;;;;;;23.97;51.20;98089.41;5075005;28;20103;-67
2022/04/05 03:37:20;;;;;;;0.77;0.10;;;;;;;23.96;51.69;98097.91;5073439;28;20027;-67
2022/04/05 03:39:45;;;;;;;0.93;0.25;;;;;;;23.94;52.37;98113.81;5075026;28;20024;-66
2022/04/05 03:42:10;;;;;;;0.10;0.10;;;;;;;23.97;51.19;98091.31;5074000;28;20020;-66
2022/04/05 03:44:35;;;;;;;0.00;0.00;;;;;;;23.93;51.41;98095.72;5074755;28;20021;-67
2022/04/05 03:47:01;;;;;;;0.85;0.20;;;;;;;23.92;52.25;98102.28;5074630;28;20028;-67
2022/04/05 03:49:26;;;;;;;1.25;0.20;;;;;;;23.94;51.18;98105.59;5074628;28;20032;-67
2022/04/05 03:51:51;;;;;;;1.17;0.00;;;;;;;23.94;50.97;98119.31;5074843;28;20380;-66
2022/04/05 03:54:17;;;;;;;0.82;0.17;;;;;;;23.96;51.87;98119.84;5074562;28;20051;-67
2022/04/05 03:56:42;;;;;;;1.67;0.10;;;;;;;23.95;51.23;98127.25;5074644;28;20029;-67
2022/04/05 03:59:07;;;;;;;0.82;0.10;;;;;;;23.93;50.96;98118.47;5074469;28;20035;-67
2022/04/05 04:01:32;;;;;;;0.40;0.00;;;;;;;24.01;51.25;98125.34;5074381;28;20367;-67
2022/04/05 04:03:58;;;;;;;1.63;0.28;;;;;;;24.16;50.72;98144.56;5073083;28;20086;-66
2022/04/05 04:06:23;;;;;;;0.93;0.10;;;;;;;24.20;51.31;98144.84;5074258;28;20442;-66
2022/04/05 04:08:48;;;;;;;0.55;0.10;;;;;;;24.27;50.39;98148.97;5074487;28;20040;-67
2022/04/05 04:11:13;;;;;;;0.30;0.05;;;;;;;24.32;49.69;98158.31;5074108;28;20020;-66
2022/04/05 04:13:39;;;;;;;0.50;0.00;;;;;;;24.38;49.03;98179.19;5074257;28;20039;-66
2022/04/05 04:16:05;;;;;;;0.75;0.10;;;;;;;24.39;49.35;98173.44;5073093;28;20017;-67
2022/04/05 04:18:30;;;;;;;0.25;0.00;;;;;;;24.41;49.53;98167.66;5074085;28;20029;-66
2022/04/05 04:20:55;;;;;;;0.13;0.10;;;;;;;24.44;48.84;98176.16;5074154;28;20024;-67
2022/04/05 04:23:21;;;;;;;0.98;0.10;;;;;;;24.47;48.92;98174.78;5072598;28;20035;-67
2022/04/05 04:25:46;;;;;;;1.05;0.10;;;;;;;24.46;48.98;98181.38;5074042;28;20020;-67
2022/04/05 04:28:11;;;;;;;0.63;0.00;;;;;;;24.48;49.40;98190.97;5073998;28;20029;-67
2022/04/05 04:30:38;;;;;;;0.30;0.00;;;;;;;24.48;48.58;98187.41;5073883;28;20107;-67
2022/04/05 04:33:06;;;;;;;0.30;0.10;;;;;;;24.50;48.87;98187.97;5072532;28;20025;-66
2022/04/05 04:35:32;;;;;;;0.10;0.00;;;;;;;24.52;48.61;98194.00;5073705;28;20013;-66
2022/04/05 04:37:58;;;;;;;0.30;0.10;;;;;;;24.51;47.66;98206.91;5073921;28;20036;-66
2022/04/05 04:40:25;;;;;;;1.35;0.10;;;;;;;24.53;48.41;98198.41;5073387;28;20031;-67
2022/04/05 04:42:51;;;;;;;0.43;0.25;;;;;;;24.55;48.16;98207.19;5073685;28;20483;-67
2022/04/05 04:45:16;;;;;;;1.27;0.10;;;;;;;24.55;48.45;98201.72;5073698;28;20016;-67
2022/04/05 04:47:42;;;;;;;0.95;0.17;;;;;;;24.59;48.46;98202.81;5073712;28;20063;-66
2022/04/05 04:50:10;;;;;;;0.40;0.10;;;;;;;24.57;48.53;98216.81;5073637;28;20069;-67
2022/04/05 04:52:36;;;;;;;1.20;0.10;;;;;;;24.58;48.22;98212.97;5073491;28;20028;-67
2022/04/05 04:55:01;;;;;;;0.28;0.10;;;;;;;24.62;47.94;98224.22;5073402;28;20020;-67
2022/04/05 04:57:27;;;;;;;1.27;0.10;;;;;;;24.64;47.35;98226.69;5073346;28;20032;-66
2022/04/05 04:59:54;;;;;;;1.85;0.20;;;;;;;24.63;47.62;98236.84;5073438;28;20441;-66
2022/04/05 05:02:22;;;;;;;0.10;0.10;;;;;;;24.63;47.50;98230.53;5073247;28;20065;-66
2022/04/05 05:04:48;;;;;;;0.00;0.00;;;;;;;24.66;49.09;98235.47;5073549;28;20055;-67
2022/04/05 05:07:14;;;;;;;1.88;0.10;;;;;;;24.64;47.12;98246.75;5073003;28;20471;-66
2022/04/05 05:09:40;;;;;;;0.65;0.10;;;;;;;24.69;47.49;98256.88;5073296;28;20020;-67
2022/04/05 05:12:06;;;;;;;0.38;0.20;;;;;;;24.60;46.84;98240.16;5073211;28;20413;-67
2022/04/05 05:14:31;;;;;;;1.10;0.00;;;;;;;24.65;47.82;98250.31;5073023;28;20643;-66
2022/04/05 05:16:56;;;;;;;1.15;0.10;;;;;;;24.66;47.87;98240.97;5073387;28;20025;-67
2022/04/05 05:19:22;;;;;;;0.32;0.10;;;;;;;24.67;47.47;98243.44;5072904;28;20032;-67
2022/04/05 05:21:48;;;;;;;1.00;0.40;;;;;;;24.66;47.51;98255.53;5072948;28;20051;-67
2022/04/05 05:24:13;;;;;;;0.47;0.10;;;;;;;24.62;47.19;98251.69;5072865;28;20142;-67
2022/04/05 05:26:38;;;;;;;0.57;0.35;;;;;;;24.72;47.34;98259.94;5072859;28;20099;-67
2022/04/05 05:29:04;;;;;;;0.25;0.00;;;;;;;24.68;47.59;98256.06;5073104;28;20456;-68
2022/04/05 05:31:29;;;;;;;1.17;0.70;;;;;;;24.67;47.04;98259.91;5072638;28;20447;-67
2022/04/05 05:33:54;;;;;;;0.22;0.17;;;;;;;24.64;47.17;98252.22;5072848;28;20025;-67
2022/04/05 05:36:20;;;;;;;0.35;0.10;;;;;;;24.67;47.39;98259.09;5072531;28;20029;-67
2022/04/05 05:38:45;;;;;;;0.43;0.10;;;;;;;24.68;47.02;98250.56;5072716;28;20103;-67
2022/04/05 05:41:10;;;;;;;0.70;0.13;;;;;;;24.65;46.96;98256.63;5072534;28;20025;-67
2022/04/05 05:43:37;;;;;;;0.25;0.00;;;;;;;24.67;46.87;98270.91;5072571;28;20036;-67
2022/04/05 05:46:03;;;;;;;0.32;0.10;;;;;;;24.69;46.51;98268.72;5072653;28;20028;-67
2022/04/05 05:48:29;;;;;;;0.20;0.00;;;;;;;24.69;46.79;98270.63;5072367;28;20035;-67
2022/04/05 05:50:55;;;;;;;0.50;0.17;;;;;;;24.69;47.57;98273.38;5072551;28;20376;-66
2022/04/05 05:53:21;;;;;;;0.65;0.10;;;;;;;24.70;47.04;98292.34;5071666;28;20032;-66
2022/04/05 05:55:48;;;;;;;0.20;0.10;;;;;;;24.70;47.43;98302.53;5072539;28;20487;-67
2022/04/05 05:58:13;;;;;;;0.20;0.08;;;;;;;24.68;46.18;98300.03;5072418;28;20040;-66
2022/04/05 06:00:39;;;;;;;0.63;0.20;;;;;;;24.70;46.64;98314.31;5072386;28;20025;-66
2022/04/05 06:03:04;;;;;;;1.40;0.10;;;;;;;24.72;47.06;98311.31;5072263;28;20024;-67
2022/04/05 06:05:30;;;;;;;1.20;0.00;;;;;;;24.70;45.98;98319.00;5070712;28;20037;-67
2022/04/05 06:07:56;;;;;;;0.52;0.10;;;;;;;24.75;47.29;98317.06;5072397;28;20025;-67
2022/04/05 06:10:22;;;;;;;0.20;0.10;;;;;;;24.69;46.95;98329.16;5072248;28;20024;-67
2022/04/05 06:12:49;;;;;;;0.70;0.38;;;;;;;24.73;47.71;98330.25;5072219;28;20032;-67
2022/04/05 06:15:15;;;;;;;1.15;0.10;;;;;;;24.73;47.18;98338.50;5071989;28;20428;-67
2022/04/05 06:17:43;;;;;;;0.55;0.20;;;;;;;24.70;46.45;98330.81;5072257;28;20027;-67
2022/04/05 06:20:10;;;;;;;0.10;0.05;;;;;;;24.74;46.26;98337.41;5072261;28;20021;-67
2022/04/05 06:23:00;;;;;;;1.05;0.10;;;;;;;24.73;47.51;98349.50;5072145;28;20024;-67
2022/04/05 06:25:33;;;;;;;0.45;0.15;;;;;;;24.76;47.23;98359.94;5072113;28;20361;-67
2022/04/05 06:28:04;;;;;;;0.43;0.05;;;;;;;24.78;46.85;98354.97;5071057;28;20055;-66
2022/04/05 06:30:32;;;;;;;0.85;0.10;;;;;;;24.74;46.21;98359.38;5071936;28;20028;-67
2022/04/05 06:33:12;;;;;;;2.40;0.25;;;;;;;24.79;46.96;98362.13;5070822;28;20047;-66
2022/04/05 06:35:39;;;;;;;0.05;0.00;;;;;;;24.76;46.36;98373.66;5072300;28;20020;-67
2022/04/05 06:38:05;;;;;;;0.45;0.13;;;;;;;24.75;45.62;98383.00;5072086;28;20111;-67
2022/04/05 06:40:31;;;;;;;0.30;0.10;;;;;;;24.76;46.76;98372.84;5070616;28;20119;-67
2022/04/05 06:42:56;;;;;;;0.38;0.20;;;;;;;24.74;46.49;98386.84;5071959;28;20028;-67
2022/04/05 06:45:22;;;;;;;0.30;0.17;;;;;;;24.79;46.69;98394.28;5071683;28;20108;-67
2022/04/05 06:47:47;;;;;;;0.73;0.13;;;;;;;24.79;45.92;98384.09;5072066;28;20383;-67
2022/04/05 06:50:14;;;;;;;0.75;0.38;;;;;;;24.74;46.20;98395.09;5071898;28;20387;-66
2022/04/05 06:52:41;;;;;;;0.82;0.20;;;;;;;24.76;45.94;98392.06;5071936;28;20021;-67
2022/04/05 06:55:08;;;;;;;0.93;0.17;;;;;;;24.78;46.24;98400.88;5070547;28;20440;-67
2022/04/05 06:57:34;;;;;;;0.65;0.10;;;;;;;24.81;45.75;98395.63;5071802;28;20028;-67
2022/04/05 06:59:59;;;;;;;0.60;0.20;;;;;;;24.76;45.82;98406.63;5072288;28;20017;-67
2022/04/05 07:02:25;;;;;;;0.32;0.20;;;;;;;24.79;47.44;98413.50;5071669;28;20021;-67
2022/04/05 07:04:50;;;;;;;0.38;0.10;;;;;;;24.79;45.01;98411.56;5073832;28;20037;-67
2022/04/05 07:07:17;;;;;;;0.30;0.30;;;;;;;24.83;46.79;98428.34;5075295;28;20119;-66
2022/04/05 07:09:42;;;;;;;0.68;0.30;;;;;;;24.83;45.32;98425.59;5075883;28;20060;-67
2022/04/05 07:12:08;;;;;;;0.43;0.05;;;;;;;24.80;46.42;98435.22;5074219;28;20044;-67
2022/04/05 07:14:34;;;;;;;0.50;0.30;;;;;;;24.79;45.75;98441.78;5070868;28;20491;-66
2022/04/05 07:16:59;;;;;;;0.70;0.20;;;;;;;24.82;46.29;98433.00;5079130;28;20024;-67
2022/04/05 07:19:24;;;;;;;0.55;0.10;;;;;;;24.80;46.43;98446.19;5075187;28;20460;-67
2022/04/05 07:21:50;;;;;;;0.17;0.17;;;;;;;24.81;46.05;98442.34;5075352;28;20058;-67
2022/04/05 07:24:15;;;;;;;0.90;0.10;;;;;;;24.82;45.78;98455.00;5073760;28;20021;-67
2022/04/05 07:26:40;;;;;;;0.17;0.13;;;;;;;24.78;44.67;98453.88;5073929;28;20078;-67
2022/04/05 07:29:06;;;;;;;0.45;0.20;;;;;;;24.81;46.30;98461.59;5075099;28;20027;-66
2022/04/05 07:31:31;;;;;;;0.20;0.10;;;;;;;24.81;47.21;98458.84;5073741;28;20031;-67
2022/04/05 07:33:56;;;;;;;0.20;0.20;;;;;;;24.82;45.71;98476.97;5066209;28;20070;-67
2022/04/05 07:36:21;;;;;;;0.38;0.10;;;;;;;24.80;45.13;98478.34;5072184;28;20016;-66
2022/04/05 07:38:47;;;;;;;4.03;0.40;;;;;;;24.87;46.14;98471.50;5060799;28;20077;-68
2022/04/05 07:41:13;;;;;;;2.80;0.30;;;;;;;25.08;44.96;98493.56;5054169;28;20021;-68
2022/04/05 07:43:38;;;;;;;4.70;0.20;;;;;;;25.17;45.38;98494.66;5070553;28;20479;-64
2022/04/05 07:46:04;;;;;;;1.95;0.47;;;;;;;25.25;45.91;98488.66;5055000;28;20378;-63
2022/04/05 07:48:30;;;;;;;1.15;0.22;;;;;;;25.25;45.89;98496.91;5053061;28;20136;-62
2022/04/05 07:50:56;;;;;;;1.17;0.40;;;;;;;25.13;45.17;98496.31;5054395;28;20029;-65
2022/04/05 07:53:21;;;;;;;7.57;0.40;;;;;;;25.08;45.32;98501.81;5053870;28;20025;-61
2022/04/05 07:55:46;;;;;;;0.40;0.30;;;;;;;25.09;44.69;98497.97;5070343;28;20077;-65
2022/04/05 07:58:12;;;;;;;3.15;0.50;;;;;;;25.01;43.82;98506.72;5072548;28;20095;-64
2022/04/05 08:00:37;;;;;;;0.10;0.00;;;;;;;25.06;45.38;98510.34;5073401;28;20044;-63
2022/04/05 08:03:03;;;;;;;2.13;0.47;;;;;;;24.80;47.30;98523.13;5072451;28;20479;-64
2022/04/05 08:05:28;;;;;;;1.85;0.40;;;;;;;24.72;48.18;98520.91;5072272;28;20049;-64
2022/04/05 08:07:54;;;;;;;1.65;0.20;;;;;;;24.84;49.89;98523.41;5072108;28;20020;-62
2022/04/05 08:10:20;;;;;;;8.70;0.57;;;;;;;24.63;50.03;98522.50;5072491;28;20024;-63
2022/04/05 08:12:48;;;;;;;1.08;0.30;;;;;;;24.88;53.48;98530.88;5077885;28;20302;-64
2022/04/05 08:15:19;;;;;;;0.55;0.10;;;;;;;24.89;52.16;98521.53;5069438;28;20047;-63
2022/04/05 08:17:45;;;;;;;0.35;0.10;;;;;;;24.95;51.41;98530.59;5072997;28;20035;-63
2022/04/05 08:20:11;;;;;;;0.10;0.10;;;;;;;25.14;51.41;98533.69;5073895;28;20036;-63
2022/04/05 08:22:36;;;;;;;0.32;0.10;;;;;;;25.11;49.80;98535.06;5074013;28;20032;-63
2022/04/05 08:25:03;;;;;;;0.77;0.10;;;;;;;25.03;51.15;98543.88;5073887;28;20024;-63
2022/04/05 08:27:28;;;;;;;0.20;0.20;;;;;;;25.01;50.15;98535.03;5073686;28;20051;-63
2022/04/05 08:29:53;;;;;;;0.43;0.22;;;;;;;25.03;49.74;98538.38;5074613;28;20074;-63
2022/04/05 08:32:19;;;;;;;0.93;0.05;;;;;;;25.02;48.85;98535.84;5073783;28;20380;-63
2022/04/05 08:34:45;;;;;;;1.23;0.30;;;;;;;25.03;48.85;98545.78;5074030;28;20013;-63
2022/04/05 08:37:11;;;;;;;0.20;0.05;;;;;;;25.10;47.78;98538.09;5073767;28;20029;-63
2022/04/05 08:39:37;;;;;;;0.20;0.05;;;;;;;25.02;47.93;98546.84;5073795;28;20464;-63
2022/04/05 08:42:04;;;;;;;0.38;0.10;;;;;;;25.16;48.34;98545.25;5072642;28;20057;-63
2022/04/05 08:44:30;;;;;;;0.43;0.05;;;;;;;25.18;48.75;98554.06;5073517;28;20028;-63
2022/04/05 08:46:55;;;;;;;0.85;0.10;;;;;;;25.27;48.36;98549.69;5073787;28;20062;-63
2022/04/05 08:49:22;;;;;;;0.57;0.10;;;;;;;25.25;46.75;98546.38;5073370;28;20523;-63
2022/04/05 08:51:49;;;;;;;0.57;0.20;;;;;;;25.18;47.23;98562.31;5073645;28;20090;-63
2022/04/05 08:54:14;;;;;;;0.32;0.10;;;;;;;25.08;47.05;98556.78;5073522;28;20464;-64
2022/04/05 08:56:39;;;;;;;0.35;0.10;;;;;;;25.20;46.10;98549.13;5073570;28;20073;-64
2022/04/05 08:59:05;;;;;;;0.63;0.10;;;;;;;25.13;46.24;98559.53;5073647;28;20024;-64
2022/04/05 09:01:30;;;;;;;0.20;0.00;;;;;;;25.17;45.83;98561.47;5072470;28;20036;-64
2022/04/05 09:03:58;;;;;;;0.28;0.10;;;;;;;25.24;46.23;98561.22;5073356;28;20075;-64
2022/04/05 09:06:28;;;;;;;0.10;0.00;;;;;;;25.21;44.60;98567.28;5073063;28;20025;-64
2022/04/05 09:09:16;;;;;;;0.63;0.10;;;;;;;25.19;45.73;98570.31;5073259;28;20024;-64
2022/04/05 09:11:47;;;;;;;0.80;0.00;;;;;;;25.25;45.80;98568.38;5073195;28;20468;-64
2022/04/05 09:14:13;;;;;;;0.95;0.10;;;;;;;25.26;45.69;98582.97;5073204;28;20426;-64
2022/04/05 09:16:39;;;;;;;0.32;0.15;;;;;;;25.20;44.44;98587.63;5073139;28;20035;-64
2022/04/05 09:19:12;;;;;;;0.57;0.10;;;;;;;25.25;45.52;98590.38;5073039;28;20021;-64
2022/04/05 09:21:53;;;;;;;0.30;0.10;;;;;;;25.29;44.28;98601.66;5073071;28;20103;-64
2022/04/05 09:24:19;;;;;;;0.20;0.10;;;;;;;25.23;43.12;98603.56;5072671;28;20024;-64
2022/04/05 09:26:45;;;;;;;0.03;0.03;;;;;;;25.23;43.65;98603.56;5072714;28;20099;-64
2022/04/05 09:29:10;;;;;;;0.20;0.00;;;;;;;25.27;43.45;98610.19;5072051;28;20488;-64
2022/04/05 09:31:44;;;;;;;1.13;0.10;;;;;;;25.29;44.74;98607.97;5072101;28;20567;-64
2022/04/05 09:34:16;;;;;;;;;;;;;;;25.28;43.81;98611.84;5073303;28;20510;-64
2022/04/05 09:36:44;;;;;;;0.85;0.32;;;;;;;25.24;44.03;98615.41;5072733;28;19916;-64
2022/04/05 09:39:25;;;;;;;0.10;0.10;;;;;;;25.23;43.46;98616.50;5072556;28;20034;-64
2022/04/05 09:42:08;;;;;;;0.90;0.10;;;;;;;25.33;42.73;98625.59;5071734;28;20424;-64
2022/04/05 09:44:40;;;;;;;0.88;0.45;;;;;;;25.30;43.40;98631.63;5071129;28;20035;-64
2022/04/05 09:47:10;;;;;;;0.43;0.10;;;;;;;25.34;42.77;98638.25;5072494;28;20024;-64
2022/04/05 09:49:40;;;;;;;0.17;0.17;;;;;;;25.41;43.72;98638.81;5072511;28;20024;-65
2022/04/05 09:52:21;;;;;;;0.80;0.10;;;;;;;25.38;42.90;98655.88;5072620;28;20072;-64
2022/04/05 09:54:46;;;;;;;0.50;0.20;;;;;;;25.29;42.22;98645.66;5072818;28;20410;-64
2022/04/05 09:57:11;;;;;;;0.95;0.10;;;;;;;25.38;42.09;98655.06;5070967;28;20032;-64
2022/04/05 09:59:37;;;;;;;0.15;0.05;;;;;;;25.35;43.17;98664.63;5072356;28;20024;-64
2022/04/05 10:02:16;;;;;;;0.13;0.10;;;;;;;25.37;41.22;98662.47;5073075;28;20020;-64
2022/04/05 10:04:57;;;;;;;1.10;0.00;;;;;;;25.46;42.56;98657.25;5070804;28;20036;-65
2022/04/05 10:07:23;;;;;;;0.40;0.10;;;;;;;25.42;42.50;98667.16;5070840;28;20085;-65
2022/04/05 10:09:50;;;;;;;0.65;0.00;;;;;;;25.47;42.69;98670.75;5072376;28;20020;-65
2022/04/05 10:12:16;;;;;;;0.65;0.20;;;;;;;25.45;42.50;98721.63;5072251;28;20063;-64
2022/04/05 10:14:42;;;;;;;0.65;0.13;;;;;;;25.38;42.68;98683.38;5072279;28;20020;-64
2022/04/05 10:17:08;;;;;;;0.10;0.10;;;;;;;25.47;41.73;98684.50;5072194;28;20453;-64
2022/04/05 10:19:35;;;;;;;1.63;0.47;;;;;;;25.52;42.04;98678.19;5072173;28;20486;-64
2022/04/05 10:22:01;;;;;;;0.25;0.00;;;;;;;25.38;41.96;98683.38;5072680;28;20032;-64
2022/04/05 10:24:28;;;;;;;0.80;0.05;;;;;;;25.40;42.61;98678.44;5071972;28;20029;-65
2022/04/05 10:26:53;;;;;;;0.55;0.22;;;;;;;25.39;42.08;98679.53;5072484;28;20345;-65
2022/04/05 10:29:19;;;;;;;0.60;0.22;;;;;;;25.40;41.84;98681.19;5071817;28;20032;-65
2022/04/05 10:31:52;;;;;;;0.75;0.10;;;;;;;25.43;41.23;98688.06;5072185;28;20059;-64
2022/04/05 10:34:25;;;;;;;0.30;0.10;;;;;;;25.50;42.50;98694.94;5072051;28;20032;-64
2022/04/05 10:37:09;;;;;;;0.85;0.10;;;;;;;25.49;42.18;98693.31;5072139;28;20032;-64
2022/04/05 10:39:36;;;;;;;0.57;0.28;;;;;;;25.21;44.09;98695.69;5073984;28;20051;-64
2022/04/05 10:42:13;;;;;;;0.98;0.20;;;;;;;24.55;46.21;98693.31;5076213;28;20028;-64
2022/04/05 10:44:46;;;;;;;0.80;0.28;;;;;;;24.32;46.73;98707.41;5076025;28;20123;-65
2022/04/05 10:47:11;;;;;;;1.50;0.43;;;;;;;24.11;47.95;98707.19;5075728;28;20089;-65
2022/04/05 10:49:44;;;;;;;1.15;0.55;;;;;;;23.92;46.19;98717.72;5076144;28;20107;-64
2022/04/05 10:52:31;;;;;;;0.35;0.10;;;;;;;23.81;44.19;98706.88;5076005;28;20032;-64
2022/04/05 10:55:02;;;;;;;0.17;0.10;;;;;;;23.69;44.34;98716.09;5075876;28;20277;-64
2022/04/05 10:57:34;;;;;;;0.00;0.00;;;;;;;23.65;43.01;98728.66;5075717;28;20031;-64
2022/04/05 11:00:21;;;;;;;0.40;0.08;;;;;;;23.56;42.20;98727.44;5075922;28;20020;-64
2022/04/05 11:03:02;;;;;;;0.32;0.00;;;;;;;23.50;42.37;98727.59;5075704;28;20060;-64
2022/04/05 11:05:41;;;;;;;0.95;0.20;;;;;;;23.53;41.89;98738.91;5074045;28;20503;-64
2022/04/05 11:08:12;;;;;;;0.20;0.10;;;;;;;23.57;41.22;98737.34;5075629;28;20054;-64
2022/04/05 11:10:37;;;;;;;0.25;0.20;;;;;;;23.51;41.12;98732.84;5075815;28;20024;-64
2022/04/05 11:13:06;;;;;;;0.77;0.20;;;;;;;23.44;39.39;98737.69;5075433;28;20460;-64
2022/04/05 11:15:42;;;;;;;0.10;0.10;;;;;;;23.48;40.94;98746.22;5075283;28;20311;-65
2022/04/05 11:18:09;;;;;;;0.80;0.20;;;;;;;23.50;41.05;98744.88;5075487;28;20387;-64
2022/04/05 11:20:35;;;;;;;0.52;0.10;;;;;;;23.54;41.41;98761.69;5075291;28;20035;-64
2022/04/05 11:23:02;;;;;;;0.08;0.03;;;;;;;23.56;41.42;98760.34;5075479;28;20033;-64
2022/04/05 11:25:29;;;;;;;0.20;0.05;;;;;;;23.60;40.94;98756.03;5074927;28;20632;-65
2022/04/05 11:28:07;;;;;;;0.20;0.10;;;;;;;23.60;41.51;98752.44;5075387;28;20025;-65
2022/04/05 11:31:04;;;;;;;0.20;0.00;;;;;;;23.68;42.29;98752.84;5074959;28;20028;-64
2022/04/05 11:33:29;;;;;;;0.32;0.10;;;;;;;23.61;41.73;98746.72;5074128;28;20032;-65